createdAt,value
2022-10-17T00:00:41.337Z,5.33
2022-10-17T00:03:08.680Z,5.28
2022-10-17T00:05:40.188Z,5.32
2022-10-17T00:08:09.221Z,5.29
2022-10-17T00:10:37.612Z,5.30
2022-10-17T00:13:05.333Z,5.31
2022-10-17T00:15:33.542Z,5.32
2022-10-17T00:18:01.883Z,5.33
2022-10-17T00:20:30.596Z,5.27
2022-10-17T00:22:58.036Z,5.37
2022-10-17T00:25:26.849Z,5.27
2022-10-17T00:27:54.353Z,5.24
2022-10-17T00:30:21.604Z,5.17
2022-10-17T00:32:48.810Z,5.21
2022-10-17T00:35:16.203Z,5.17
2022-10-17T00:37:43.554Z,5.22
2022-10-17T00:40:11.451Z,5.22
2022-10-17T00:42:40.807Z,5.22
2022-10-17T00:45:14.956Z,5.17
2022-10-17T00:47:46.629Z,5.12
2022-10-17T00:50:15.211Z,5.06
2022-10-17T00:52:43.769Z,4.97
2022-10-17T00:55:14.632Z,5.00
2022-10-17T00:57:45.561Z,5.00
2022-10-17T01:00:15.726Z,4.93
2022-10-17T01:02:43.264Z,4.94
2022-10-17T01:05:11.920Z,4.92
2022-10-17T01:07:40.952Z,4.93
2022-10-17T01:10:09.328Z,4.98
2022-10-17T01:12:49.137Z,4.92
2022-10-17T01:15:26.744Z,4.87
2022-10-17T01:18:08.795Z,4.95
2022-10-17T01:20:58.785Z,4.91
2022-10-17T01:23:42.356Z,4.86
2022-10-17T01:26:19.347Z,4.69
2022-10-17T01:29:24.658Z,4.75
2022-10-17T01:32:00.279Z,4.68
2022-10-17T01:34:33.185Z,4.72
2022-10-17T01:37:05.691Z,4.69
2022-10-17T01:39:45.353Z,4.79
2022-10-17T01:42:19.995Z,4.75
2022-10-17T01:44:55.648Z,4.70
2022-10-17T01:47:29.668Z,4.79
2022-10-17T01:50:01.586Z,4.72
2022-10-17T01:52:38.836Z,4.66
2022-10-17T01:55:11.574Z,4.71
2022-10-17T01:57:45.490Z,4.73
2022-10-17T02:00:17.173Z,4.66
2022-10-17T02:02:48.966Z,4.64
2022-10-17T02:05:19.167Z,4.67
2022-10-17T02:07:46.363Z,4.60
2022-10-17T02:10:25.091Z,4.73
2022-10-17T02:13:00.607Z,4.64
2022-10-17T02:15:59.442Z,4.66
2022-10-17T02:18:46.259Z,4.69
2022-10-17T02:21:45.525Z,4.68
2022-10-17T02:24:20.858Z,4.64
2022-10-17T02:26:54.181Z,4.61
2022-10-17T02:29:26.655Z,4.64
2022-10-17T02:31:59.381Z,4.59
2022-10-17T02:34:32.217Z,4.66
2022-10-17T02:37:02.298Z,4.59
2022-10-17T02:39:31.914Z,4.59
2022-10-17T02:42:03.735Z,4.61
2022-10-17T02:44:32.467Z,4.59
2022-10-17T02:47:09.070Z,4.48
2022-10-17T02:49:41.953Z,4.59
2022-10-17T02:52:14.933Z,4.59
2022-10-17T02:54:48.097Z,4.51
2022-10-17T02:57:21.577Z,4.58
2022-10-17T02:59:50.453Z,4.45
2022-10-17T03:02:18.243Z,4.49
2022-10-17T03:04:47.558Z,4.46
2022-10-17T03:07:16.429Z,4.51
2022-10-17T03:09:44.143Z,4.50
2022-10-17T03:12:11.593Z,4.44
2022-10-17T03:14:38.877Z,4.37
2022-10-17T03:17:06.191Z,4.42
2022-10-17T03:19:33.472Z,4.35
2022-10-17T03:22:02.183Z,4.34
2022-10-17T03:24:30.931Z,4.34
2022-10-17T03:26:58.676Z,4.25
2022-10-17T03:29:25.945Z,4.36
2022-10-17T03:31:54.628Z,4.30
2022-10-17T03:34:22.307Z,4.29
2022-10-17T03:36:49.641Z,4.28
2022-10-17T03:39:19.407Z,4.33
2022-10-17T03:41:47.128Z,4.34
2022-10-17T03:44:15.321Z,4.29
2022-10-17T03:46:43.058Z,4.27
2022-10-17T03:49:10.725Z,4.21
2022-10-17T03:51:38.262Z,4.24
2022-10-17T03:54:10.153Z,4.30
2022-10-17T03:56:38.693Z,4.26
2022-10-17T03:59:13.407Z,4.23
2022-10-17T04:01:41.527Z,4.28
2022-10-17T04:04:09.468Z,4.29
2022-10-17T04:06:38.268Z,4.27
2022-10-17T04:09:06.885Z,4.36
2022-10-17T04:11:44.886Z,4.40
2022-10-17T04:14:13.156Z,4.35
2022-10-17T04:16:40.696Z,4.34
2022-10-17T04:19:14.253Z,4.35
2022-10-17T04:21:45.342Z,4.43
2022-10-17T04:24:14.452Z,4.47
2022-10-17T04:27:05.651Z,4.46
2022-10-17T04:29:36.481Z,4.57
2022-10-17T04:32:26.217Z,4.49
2022-10-17T04:35:01.691Z,4.57
2022-10-17T04:37:30.709Z,4.54
2022-10-17T04:39:59.793Z,4.59
2022-10-17T04:42:32.079Z,4.55
2022-10-17T04:44:59.787Z,4.52
2022-10-17T04:47:28.055Z,4.52
2022-10-17T04:49:56.356Z,4.54
2022-10-17T04:52:25.230Z,4.71
2022-10-17T04:54:53.421Z,4.63
2022-10-17T04:57:21.487Z,4.75
2022-10-17T05:00:03.660Z,4.68
2022-10-17T05:02:58.888Z,4.69
2022-10-17T05:05:27.148Z,4.72
2022-10-17T05:07:55.725Z,4.68
2022-10-17T05:10:26.426Z,4.85
2022-10-17T05:12:54.675Z,4.82
2022-10-17T05:15:25.929Z,4.80
2022-10-17T05:17:56.076Z,4.87
2022-10-17T05:20:24.491Z,4.89
2022-10-17T05:22:52.013Z,4.92
2022-10-17T05:25:19.609Z,4.94
2022-10-17T05:27:47.318Z,4.98
2022-10-17T05:30:15.970Z,5.00
2022-10-17T05:32:44.820Z,5.08
2022-10-17T05:35:12.159Z,5.12
2022-10-17T05:37:39.838Z,5.13
2022-10-17T05:40:08.602Z,5.12
2022-10-17T05:42:35.896Z,5.18
2022-10-17T05:45:03.771Z,5.22
2022-10-17T05:47:32.009Z,5.27
2022-10-17T05:50:00.960Z,5.33
2022-10-17T05:52:34.660Z,5.35
2022-10-17T05:55:13.435Z,5.44
2022-10-17T05:57:40.978Z,5.46
2022-10-17T06:00:14.137Z,5.55
2022-10-17T06:02:50.520Z,5.52
2022-10-17T06:05:21.521Z,5.68
2022-10-17T06:07:56.993Z,5.64
2022-10-17T06:10:27.444Z,5.63
2022-10-17T06:12:56.810Z,5.65
2022-10-17T06:15:24.394Z,5.76
2022-10-17T06:17:58.468Z,5.78
2022-10-17T06:20:27.055Z,5.84
2022-10-17T06:22:54.455Z,5.86
2022-10-17T06:25:35.176Z,5.89
2022-10-17T06:28:02.739Z,5.91
2022-10-17T06:30:30.474Z,5.97
2022-10-17T06:32:57.783Z,5.96
2022-10-17T06:35:26.561Z,6.00
2022-10-17T06:37:53.851Z,6.00
2022-10-17T06:40:21.906Z,6.14
2022-10-17T06:42:49.714Z,6.11
2022-10-17T06:45:38.839Z,6.13
2022-10-17T06:48:29.564Z,6.23
2022-10-17T06:51:30.364Z,6.23
2022-10-17T06:53:59.337Z,6.23
2022-10-17T06:56:32.097Z,6.25
2022-10-17T06:59:09.313Z,6.25
2022-10-17T07:01:40.674Z,6.31
2022-10-17T07:04:12.032Z,6.43
2022-10-17T07:06:41.092Z,6.43
2022-10-17T07:09:15.605Z,6.49
2022-10-17T07:11:42.930Z,6.46
2022-10-17T07:14:10.310Z,6.60
2022-10-17T07:16:37.772Z,6.68
2022-10-17T07:19:11.084Z,6.67
2022-10-17T07:21:41.044Z,6.62
2022-10-17T07:24:10.871Z,6.71
2022-10-17T07:26:39.752Z,6.81
2022-10-17T07:29:07.688Z,6.69
2022-10-17T07:31:39.503Z,6.74
2022-10-17T07:34:06.907Z,6.78
2022-10-17T07:36:34.295Z,6.84
2022-10-17T07:39:05.550Z,6.88
2022-10-17T07:41:33.662Z,6.88
2022-10-17T07:44:00.893Z,6.96
2022-10-17T07:46:33.844Z,7.09
2022-10-17T07:49:01.145Z,7.11
2022-10-17T07:51:29.305Z,7.24
2022-10-17T07:53:56.549Z,7.21
2022-10-17T07:56:25.259Z,7.19
2022-10-17T07:58:53.298Z,7.24
2022-10-17T08:01:20.665Z,7.30
2022-10-17T08:03:51.389Z,7.28
2022-10-17T08:06:18.954Z,7.28
2022-10-17T08:08:46.280Z,7.26
2022-10-17T08:11:15.055Z,7.27
2022-10-17T08:13:43.668Z,7.21
2022-10-17T08:16:12.799Z,7.17
2022-10-17T08:18:41.411Z,7.29
2022-10-17T08:21:08.857Z,7.37
2022-10-17T08:23:36.683Z,7.33
2022-10-17T08:26:05.477Z,7.29
2022-10-17T08:28:35.558Z,7.36
2022-10-17T08:31:06.034Z,7.41
2022-10-17T08:33:33.552Z,7.54
2022-10-17T08:36:01.555Z,7.59
2022-10-17T08:38:33.279Z,7.58
2022-10-17T08:41:05.686Z,7.45
2022-10-17T08:43:46.135Z,7.46
2022-10-17T08:48:51.750Z,7.42
2022-10-17T08:51:25.158Z,7.33
2022-10-17T08:53:58.382Z,7.35
2022-10-17T08:56:47.649Z,7.39
2022-10-17T08:59:21.870Z,7.33
2022-10-17T09:01:58.945Z,7.25
2022-10-17T09:04:50.364Z,7.28
2022-10-17T09:07:27.583Z,7.11
2022-10-17T09:10:03.414Z,7.09
2022-10-17T09:12:38.099Z,7.07
2022-10-17T09:15:40.952Z,6.70
2022-10-17T09:18:18.659Z,6.26
2022-10-17T09:20:53.470Z,5.93
2022-10-17T09:23:24.935Z,5.83
2022-10-17T09:25:54.825Z,5.76
2022-10-17T09:28:26.101Z,5.48
2022-10-17T09:30:58.425Z,5.45
2022-10-17T09:33:35.958Z,5.43
2022-10-17T09:36:19.187Z,5.40
2022-10-17T09:38:49.607Z,5.35
2022-10-17T09:41:43.494Z,5.23
2022-10-17T09:44:20.444Z,5.19
2022-10-17T09:47:09.236Z,5.22
2022-10-17T09:49:40.065Z,5.25
2022-10-17T09:52:15.411Z,5.31
2022-10-17T09:54:45.892Z,5.28
2022-10-17T09:57:15.072Z,5.32
2022-10-17T09:59:47.540Z,5.31
2022-10-17T10:02:21.312Z,5.26
2022-10-17T10:05:04.572Z,5.29
2022-10-17T10:07:35.304Z,5.29
2022-10-17T10:10:04.854Z,5.22
2022-10-17T10:12:34.058Z,5.23
2022-10-17T10:15:01.406Z,5.37
2022-10-17T10:17:36.886Z,5.39
2022-10-17T10:20:27.737Z,5.34
2022-10-17T10:23:13.522Z,5.58
2022-10-17T10:25:50.193Z,5.56
2022-10-17T10:28:18.942Z,5.44
2022-10-17T10:30:50.118Z,5.55
2022-10-17T10:33:20.300Z,5.50
2022-10-17T10:35:56.768Z,5.46
2022-10-17T10:38:24.499Z,5.52
2022-10-17T10:40:54.820Z,5.56
2022-10-17T10:43:27.181Z,5.55
2022-10-17T10:45:54.646Z,5.66
2022-10-17T10:48:23.745Z,5.53
2022-10-17T10:50:57.158Z,5.61
2022-10-17T10:53:35.203Z,5.76
2022-10-17T10:56:09.559Z,5.63
2022-10-17T10:58:51.667Z,5.73
2022-10-17T11:01:28.456Z,5.69
2022-10-17T11:04:06.769Z,5.76
2022-10-17T11:06:38.454Z,5.72
2022-10-17T11:09:32.877Z,5.74
2022-10-17T11:12:08.173Z,5.66
2022-10-17T11:14:43.350Z,5.72
2022-10-17T11:17:20.396Z,5.87
2022-10-17T11:19:53.379Z,5.85
2022-10-17T11:22:29.401Z,5.88
2022-10-17T11:25:01.021Z,5.84
2022-10-17T11:27:31.652Z,5.84
2022-10-17T11:29:59.347Z,5.93
2022-10-17T11:32:32.722Z,5.92
2022-10-17T11:35:04.196Z,5.87
2022-10-17T11:37:40.649Z,6.02
2022-10-17T11:40:19.253Z,5.95
2022-10-17T11:42:56.985Z,6.01
2022-10-17T11:45:27.296Z,6.01
2022-10-17T11:48:02.107Z,6.06
2022-10-17T11:53:24.392Z,6.08
2022-10-17T11:55:54.004Z,6.08
2022-10-17T11:58:33.200Z,6.05
2022-10-17T12:01:16.190Z,6.12
2022-10-17T12:03:57.648Z,6.05
2022-10-17T12:06:42.961Z,6.06
2022-10-17T12:09:19.178Z,6.10
2022-10-17T12:11:53.972Z,6.12
2022-10-17T12:14:41.808Z,6.06
2022-10-17T12:17:33.136Z,6.12
2022-10-17T12:20:33.031Z,6.24
2022-10-17T12:23:21.527Z,6.20
2022-10-17T12:25:52.683Z,6.18
2022-10-17T12:28:27.715Z,6.18
2022-10-17T12:30:58.467Z,6.17
2022-10-17T12:33:32.159Z,6.23
2022-10-17T12:36:46.967Z,6.23
2022-10-17T12:39:50.627Z,6.29
2022-10-17T12:42:47.684Z,6.28
2022-10-17T12:45:46.063Z,6.34
2022-10-17T12:48:13.455Z,6.31
2022-10-17T12:51:30.755Z,6.38
2022-10-17T12:53:57.412Z,6.35
2022-10-17T12:56:34.365Z,6.39
2022-10-17T12:59:08.051Z,6.44
2022-10-17T13:01:39.004Z,6.36
2022-10-17T13:04:11.166Z,6.51
2022-10-17T13:06:46.807Z,6.40
2022-10-17T13:09:24.858Z,6.50
2022-10-17T13:11:54.188Z,6.55
2022-10-17T13:14:24.762Z,6.50
2022-10-17T13:16:54.016Z,6.61
2022-10-17T13:19:24.354Z,6.49
2022-10-17T13:21:52.253Z,6.59
2022-10-17T13:24:28.236Z,6.58
2022-10-17T13:26:55.491Z,6.60
2022-10-17T13:29:25.926Z,6.60
2022-10-17T13:31:55.081Z,6.68
2022-10-17T13:34:24.600Z,6.66
2022-10-17T13:36:54.837Z,6.75
2022-10-17T13:39:38.199Z,6.70
2022-10-17T13:42:21.782Z,6.67
2022-10-17T13:44:50.727Z,6.73
2022-10-17T13:47:23.102Z,6.84
2022-10-17T13:49:55.034Z,6.79
2022-10-17T13:52:23.562Z,6.76
2022-10-17T13:54:51.957Z,6.75
2022-10-17T13:57:21.578Z,6.72
2022-10-17T13:59:53.867Z,6.81
2022-10-17T14:02:23.649Z,6.84
2022-10-17T14:05:18.302Z,6.91
2022-10-17T14:08:10.571Z,6.87
2022-10-17T14:10:40.323Z,6.84
2022-10-17T14:13:19.249Z,6.87
2022-10-17T14:15:48.315Z,6.97
2022-10-17T14:18:21.021Z,7.02
2022-10-17T14:23:40.437Z,6.99
2022-10-17T14:26:11.931Z,6.98
2022-10-17T14:28:40.683Z,7.04
2022-10-17T14:31:25.820Z,7.05
2022-10-17T14:33:54.460Z,7.01
2022-10-17T14:36:33.161Z,6.93
2022-10-17T14:39:01.871Z,7.03
2022-10-17T14:41:47.676Z,7.00
2022-10-17T14:44:20.647Z,7.00
2022-10-17T14:46:53.080Z,6.98
2022-10-17T14:49:24.961Z,7.08
2022-10-17T14:52:26.204Z,7.04
2022-10-17T14:54:53.690Z,7.05
2022-10-17T14:57:25.990Z,7.05
2022-10-17T14:59:55.189Z,7.10
2022-10-17T15:02:24.766Z,7.12
2022-10-17T15:04:52.559Z,7.08
2022-10-17T15:07:21.426Z,7.11
2022-10-17T15:09:51.837Z,7.16
2022-10-17T15:12:22.413Z,7.18
2022-10-17T15:14:50.767Z,7.19
2022-10-17T15:17:21.034Z,7.20
2022-10-17T15:19:50.892Z,7.18
2022-10-17T15:22:18.702Z,7.31
2022-10-17T15:24:46.430Z,7.27
2022-10-17T15:27:16.256Z,7.28
2022-10-17T15:29:43.847Z,7.31
2022-10-17T15:32:11.654Z,7.34
2022-10-17T15:34:39.263Z,7.27
2022-10-17T15:37:16.899Z,7.25
2022-10-17T15:39:45.400Z,7.27
2022-10-17T15:42:13.085Z,7.29
2022-10-17T15:44:44.117Z,7.32
2022-10-17T15:47:22.575Z,7.31
2022-10-17T15:49:50.112Z,7.38
2022-10-17T15:52:19.079Z,7.34
2022-10-17T15:54:46.745Z,7.38
2022-10-17T15:57:18.188Z,7.44
2022-10-17T15:59:47.078Z,7.40
2022-10-17T16:02:15.571Z,7.43
2022-10-17T16:04:43.403Z,7.59
2022-10-17T16:07:10.934Z,7.47
2022-10-17T16:09:39.646Z,7.52
2022-10-17T16:12:11.907Z,7.50
2022-10-17T16:14:39.357Z,7.55
2022-10-17T16:17:06.780Z,7.58
2022-10-17T16:19:34.348Z,7.66
2022-10-17T16:22:04.452Z,7.61
2022-10-17T16:24:32.362Z,7.66
2022-10-17T16:27:01.035Z,7.73
2022-10-17T16:29:28.272Z,7.66
2022-10-17T16:31:55.466Z,7.64
2022-10-17T16:34:22.666Z,7.74
2022-10-17T16:36:49.887Z,7.71
2022-10-17T16:39:17.102Z,7.72
2022-10-17T16:41:44.351Z,7.78
2022-10-17T16:44:14.968Z,7.77
2022-10-17T16:46:42.340Z,7.77
2022-10-17T16:49:10.252Z,7.80
2022-10-17T16:51:37.549Z,7.85
2022-10-17T16:54:04.956Z,7.91
2022-10-17T16:56:32.923Z,7.87
2022-10-17T16:59:01.195Z,7.91
2022-10-17T17:01:30.009Z,7.89
2022-10-17T17:03:57.642Z,7.92
2022-10-17T17:06:26.923Z,7.96
2022-10-17T17:08:55.055Z,8.04
2022-10-17T17:11:24.670Z,8.00
2022-10-17T17:13:52.208Z,7.96
2022-10-17T17:16:21.761Z,7.97
2022-10-17T17:18:54.696Z,7.98
2022-10-17T17:21:21.893Z,8.06
2022-10-17T17:23:49.308Z,8.06
2022-10-17T17:26:19.265Z,8.01
2022-10-17T17:28:47.109Z,8.07
2022-10-17T17:31:18.578Z,8.05
2022-10-17T17:33:46.962Z,8.10
2022-10-17T17:36:19.240Z,8.16
2022-10-17T17:38:47.598Z,8.12
2022-10-17T17:41:17.327Z,8.17
2022-10-17T17:43:46.106Z,8.23
2022-10-17T17:46:13.710Z,8.14
2022-10-17T17:48:42.428Z,8.13
2022-10-17T17:51:11.864Z,8.07
2022-10-17T17:53:40.923Z,8.17
2022-10-17T17:56:10.476Z,8.13
2022-10-17T17:58:37.884Z,8.13
2022-10-17T18:01:12.294Z,8.17
2022-10-17T18:03:41.833Z,8.15
2022-10-17T18:06:09.486Z,8.13
2022-10-17T18:08:36.875Z,8.12
2022-10-17T18:11:06.301Z,8.15
2022-10-17T18:13:33.590Z,8.14
2022-10-17T18:16:02.031Z,8.10
2022-10-17T18:18:30.615Z,8.05
2022-10-17T18:21:01.767Z,8.06
2022-10-17T18:23:29.369Z,8.08
2022-10-17T18:25:57.913Z,8.09
2022-10-17T18:28:27.066Z,8.15
2022-10-17T18:30:54.602Z,8.18
2022-10-17T18:33:22.293Z,8.17
2022-10-17T18:35:49.575Z,8.15
2022-10-17T18:38:16.805Z,8.13
2022-10-17T18:40:46.081Z,8.14
2022-10-17T18:43:15.986Z,8.12
2022-10-17T18:45:44.605Z,8.12
2022-10-17T18:48:12.050Z,8.11
2022-10-17T18:50:39.584Z,8.11
2022-10-17T18:53:06.823Z,8.14
2022-10-17T18:55:34.074Z,8.20
2022-10-17T18:58:01.325Z,8.22
2022-10-17T19:00:28.672Z,8.29
2022-10-17T19:02:57.421Z,8.28
2022-10-17T19:05:24.689Z,8.25
2022-10-17T19:07:51.861Z,8.23
2022-10-17T19:10:19.105Z,8.23
2022-10-17T19:12:46.348Z,8.22
2022-10-17T19:15:13.577Z,8.23
2022-10-17T19:17:40.892Z,8.25
2022-10-17T19:20:10.915Z,8.20
2022-10-17T19:22:38.190Z,8.17
2022-10-17T19:25:06.194Z,8.15
2022-10-17T19:27:33.550Z,8.17
2022-10-17T19:30:00.950Z,8.14
2022-10-17T19:32:28.473Z,8.17
2022-10-17T19:34:56.245Z,8.16
2022-10-17T19:37:25.081Z,8.11
2022-10-17T19:39:52.340Z,8.12
2022-10-17T19:42:19.573Z,8.09
2022-10-17T19:44:46.798Z,8.06
2022-10-17T19:47:14.060Z,8.06
2022-10-17T19:49:42.897Z,8.05
2022-10-17T19:52:11.895Z,8.05
2022-10-17T19:54:40.878Z,8.02
2022-10-17T19:57:10.387Z,8.06
2022-10-17T19:59:38.044Z,8.03
2022-10-17T20:02:05.475Z,8.01
2022-10-17T20:04:32.974Z,8.02
2022-10-17T20:07:00.339Z,8.00
2022-10-17T20:09:27.571Z,8.03
2022-10-17T20:11:56.277Z,8.02
2022-10-17T20:14:23.591Z,7.99
2022-10-17T20:16:52.644Z,7.96
2022-10-17T20:19:20.699Z,7.98
2022-10-17T20:21:48.037Z,7.97
2022-10-17T20:24:16.676Z,7.97
2022-10-17T20:26:44.760Z,7.96
2022-10-17T20:29:15.623Z,7.99
2022-10-17T20:31:44.453Z,7.98
2022-10-17T20:34:13.977Z,7.96
2022-10-17T20:36:41.756Z,7.97
2022-10-17T20:39:10.864Z,7.93
2022-10-17T20:41:38.193Z,7.96
2022-10-17T20:44:07.055Z,7.94
2022-10-17T20:46:37.850Z,7.94
2022-10-17T20:49:08.534Z,7.98
2022-10-17T20:51:36.426Z,7.97
2022-10-17T20:54:04.321Z,7.98
2022-10-17T20:56:33.223Z,7.98
2022-10-17T20:59:01.884Z,7.99
2022-10-17T21:01:30.376Z,7.98
2022-10-17T21:04:10.535Z,8.00
2022-10-17T21:06:43.052Z,8.00
2022-10-17T21:09:10.525Z,7.99
2022-10-17T21:11:37.806Z,7.96
2022-10-17T21:14:06.795Z,7.90
2022-10-17T21:16:36.677Z,7.90
2022-10-17T21:19:06.268Z,7.90
2022-10-17T21:21:35.579Z,7.88
2022-10-17T21:24:05.066Z,7.85
2022-10-17T21:26:33.541Z,7.84
2022-10-17T21:29:05.558Z,7.85
2022-10-17T21:31:34.499Z,7.80
2022-10-17T21:34:07.260Z,7.79
2022-10-17T21:36:34.840Z,7.79
2022-10-17T21:39:02.152Z,7.75
2022-10-17T21:41:30.066Z,7.76
2022-10-17T21:43:58.626Z,7.82
2022-10-17T21:46:26.383Z,7.83
2022-10-17T21:48:54.462Z,7.81
2022-10-17T21:51:24.480Z,7.79
2022-10-17T21:53:53.110Z,7.80
2022-10-17T21:56:22.853Z,7.77
2022-10-17T21:58:51.785Z,7.83
2022-10-17T22:01:21.241Z,7.76
2022-10-17T22:03:50.266Z,7.91
2022-10-17T22:09:10.496Z,8.03
2022-10-17T22:11:37.957Z,8.01
2022-10-17T22:14:07.366Z,7.91
2022-10-17T22:16:35.436Z,7.87
2022-10-17T22:19:06.294Z,7.77
2022-10-17T22:21:35.247Z,7.77
2022-10-17T22:24:06.872Z,7.72
2022-10-17T22:26:37.731Z,7.74
2022-10-17T22:29:05.892Z,7.72
2022-10-17T22:31:33.520Z,7.72
2022-10-17T22:34:01.339Z,7.72
2022-10-17T22:36:28.675Z,7.70
2022-10-17T22:38:56.051Z,7.71
2022-10-17T22:41:23.225Z,7.73
2022-10-17T22:43:51.795Z,7.69
2022-10-17T22:46:19.018Z,7.69
2022-10-17T22:48:46.439Z,7.71
2022-10-17T22:51:14.051Z,7.73
2022-10-17T22:53:41.579Z,7.70
2022-10-17T22:56:12.342Z,7.68
2022-10-17T22:58:40.142Z,7.72
2022-10-17T23:01:12.969Z,7.72
2022-10-17T23:03:41.357Z,7.76
2022-10-17T23:06:08.776Z,7.77
2022-10-17T23:08:36.372Z,7.76
2022-10-17T23:11:03.652Z,7.73
2022-10-17T23:13:31.079Z,7.74
2022-10-17T23:15:58.501Z,7.76
2022-10-17T23:18:27.705Z,7.82
2022-10-17T23:20:55.420Z,7.82
2022-10-17T23:23:22.885Z,7.81
2022-10-17T23:25:51.603Z,7.81
2022-10-17T23:28:18.950Z,7.77
2022-10-17T23:30:46.218Z,7.77
2022-10-17T23:33:14.284Z,7.77
2022-10-17T23:35:42.997Z,7.73
2022-10-17T23:38:10.495Z,7.71
2022-10-17T23:40:37.996Z,7.70
2022-10-17T23:43:05.740Z,7.69
2022-10-17T23:45:35.980Z,7.65
2022-10-17T23:48:04.983Z,7.61
2022-10-17T23:50:32.221Z,7.55
2022-10-17T23:53:00.859Z,7.55
2022-10-17T23:55:28.176Z,7.57
2022-10-17T23:57:55.373Z,7.56
